Gallipolis Ferry, West Virginia
Current Conditions -  °F | °C
As of 12:55 PM on Thursday 30 Oct 2014 (Local Time) from K3I2 Reporting Station
Broken Clouds Broken Clouds  
Wind Chill: 54°   Ceiling: 4900
Heat Index: 54°   Visibility: 10mi
Dew Point: 37°   Wind: 6mph
Humidity: 54%   Direction: 230°SW
Pressure: 30.16"   Gusts: NA
Location:  38.77°N, 82.2°W
Report Text: K3I2 301655Z AUTO 23005KT 10SM BKN049 12/03 A3016 RMK AO2
Loading
Personal Weather Stations






























Interactive Weather Map
Tropical Storm Tracking
New forecast layout! Learn more

10-Day Weather Forecast

Advertisements
Track Severe Weather on mobile